Time;durP1;ratioP1;P1;durP2;ratioP2;P2;SDS_P1;SDS_P2;PMS_P1;PMS_P2;Temp;Humidity;BMP_temperature;BMP_pressure;BME280_temperature;BME280_humidity;BME280_pressure;Samples;Min_cycle;Max_cycle;Signal;HPM_P1;HPM_P2
2023/01/15 00:00:23;;;;;;;11.60;2.27;;;;;;;;;;5060119;28;20129;-65
2023/01/15 00:02:49;;;;;;;20.73;3.20;;;;;;;;;;5056142;28;20123;-65
2023/01/15 00:05:15;;;;;;;20.17;3.00;;;;;;;;;;5056608;28;20190;-65
2023/01/15 00:07:42;;;;;;;14.17;2.60;;;;;;;;;;5056318;28;20049;-66
2023/01/15 00:10:09;;;;;;;16.53;2.40;;;;;;;;;;5061079;28;20293;-66
2023/01/15 00:12:35;;;;;;;18.70;3.03;;;;;;;;;;5054022;28;20044;-65
2023/01/15 00:15:01;;;;;;;19.03;2.67;;;;;;;;;;5056163;28;20068;-65
2023/01/15 00:17:27;;;;;;;20.73;2.37;;;;;;;;;;5060009;28;20574;-66
2023/01/15 00:19:53;;;;;;;13.67;2.83;;;;;;;;;;5055757;28;20708;-65
2023/01/15 00:22:19;;;;;;;18.53;3.03;;;;;;;;;;5052571;28;20051;-66
2023/01/15 00:27:39;;;;;;;16.97;3.60;;;;;;;;;;5059651;28;20139;-65
2023/01/15 00:30:06;;;;;;;12.17;2.23;;;;;;;;;;5055865;28;20135;-65
2023/01/15 00:32:32;;;;;;;13.57;1.90;;;;;;;;;;5056307;28;20052;-65
2023/01/15 00:34:58;;;;;;;22.70;3.23;;;;;;;;;;5058755;28;20049;-65
2023/01/15 00:37:24;;;;;;;23.13;3.90;;;;;;;;;;5056989;28;20133;-65
2023/01/15 00:39:50;;;;;;;14.23;2.77;;;;;;;;;;5055076;28;20076;-65
2023/01/15 00:42:17;;;;;;;14.73;3.23;;;;;;;;;;5060154;28;20045;-65
2023/01/15 00:44:43;;;;;;;17.93;2.40;;;;;;;;;;5053583;28;20052;-65
2023/01/15 00:47:13;;;;;;;15.40;3.03;;;;;;;;;;5055624;28;20144;-65
2023/01/15 00:49:40;;;;;;;19.73;3.47;;;;;;;;;;5058261;28;20044;-65
2023/01/15 00:52:06;;;;;;;21.80;3.03;;;;;;;;;;5055410;28;20049;-65
2023/01/15 00:54:32;;;;;;;15.17;2.83;;;;;;;;;;5058280;28;20516;-65
2023/01/15 00:56:58;;;;;;;20.43;3.47;;;;;;;;;;5061139;28;20044;-66
2023/01/15 00:59:24;;;;;;;25.53;2.90;;;;;;;;;;5057789;28;20041;-65
2023/01/15 01:01:50;;;;;;;23.03;4.43;;;;;;;;;;5057781;28;20041;-65
2023/01/15 01:04:16;;;;;;;14.23;2.60;;;;;;;;;;5059253;28;20052;-66
2023/01/15 01:06:42;;;;;;;16.40;3.17;;;;;;;;;;5060708;28;20044;-65
2023/01/15 01:09:13;;;;;;;23.50;2.60;;;;;;;;;;5060000;28;20277;-65
2023/01/15 01:11:39;;;;;;;27.13;4.07;;;;;;;;;;5055590;28;20056;-65
2023/01/15 01:14:05;;;;;;;20.07;2.57;;;;;;;;;;5060101;28;20476;-65
2023/01/15 01:16:34;;;;;;;16.07;3.00;;;;;;;;;;5064126;28;20041;-66
2023/01/15 01:19:02;;;;;;;20.57;3.37;;;;;;;;;;5057360;28;20053;-66
2023/01/15 01:21:29;;;;;;;17.87;3.43;;;;;;;;;;5057494;28;20072;-65
2023/01/15 01:23:57;;;;;;;17.50;2.60;;;;;;;;;;5059634;28;20546;-65
2023/01/15 01:26:23;;;;;;;21.80;4.70;;;;;;;;;;5058522;28;20045;-65
2023/01/15 01:28:50;;;;;;;17.17;3.70;;;;;;;;;;5059519;28;20056;-65
2023/01/15 01:31:16;;;;;;;19.83;2.63;;;;;;;;;;5064040;28;20149;-65
2023/01/15 01:33:43;;;;;;;20.67;2.90;;;;;;;;;;5059412;28;20055;-65
2023/01/15 01:36:09;;;;;;;18.83;3.33;;;;;;;;;;5056969;28;20045;-65
2023/01/15 01:38:35;;;;;;;23.93;3.83;;;;;;;;;;5057198;28;20570;-65
2023/01/15 01:41:01;;;;;;;19.97;3.00;;;;;;;;;;5061092;28;20064;-65
2023/01/15 01:43:28;;;;;;;20.57;2.87;;;;;;;;;;5060299;28;20574;-66
2023/01/15 01:45:54;;;;;;;15.93;2.50;;;;;;;;;;5059291;28;20048;-65
2023/01/15 01:48:32;;;;;;;17.20;3.33;;;;;;;;;;5061998;28;20068;-65
2023/01/15 01:51:00;;;;;;;14.20;1.70;;;;;;;;;;5058357;28;20563;-65
2023/01/15 01:53:28;;;;;;;12.17;2.23;;;;;;;;;;5058527;28;20040;-65
2023/01/15 01:55:55;;;;;;;9.27;2.37;;;;;;;;;;5057829;28;20052;-65
2023/01/15 01:58:22;;;;;;;22.40;3.17;;;;;;;;;;5062187;28;20044;-65
2023/01/15 02:00:50;;;;;;;22.93;3.27;;;;;;;;;;5061473;28;20533;-65
2023/01/15 02:03:17;;;;;;;21.70;2.87;;;;;;;;;;5061708;28;20048;-65
2023/01/15 02:05:48;;;;;;;30.40;3.33;;;;;;;;;;5060583;28;20068;-65
2023/01/15 02:08:14;;;;;;;20.07;2.77;;;;;;;;;;5062432;28;20521;-65
2023/01/15 02:10:40;;;;;;;23.87;2.70;;;;;;;;;;5042554;28;20041;-65
2023/01/15 02:13:09;;;;;;;20.73;3.23;;;;;;;;;;5063123;28;20144;-65
2023/01/15 02:15:38;;;;;;;14.00;3.80;;;;;;;;;;5061740;28;20048;-65
2023/01/15 02:18:07;;;;;;;20.37;4.17;;;;;;;;;;5058203;28;21499;-65
2023/01/15 02:20:39;;;;;;;22.63;2.93;;;;;;;;;;5040719;28;20055;-65
2023/01/15 02:23:24;;;;;;;19.73;3.47;;;;;;;;;;5057569;28;20049;-65
2023/01/15 02:26:09;;;;;;;18.70;3.10;;;;;;;;;;5059389;28;20478;-64
2023/01/15 02:28:37;;;;;;;23.30;3.83;;;;;;;;;;5060226;28;20051;-65
2023/01/15 02:31:12;;;;;;;25.90;3.60;;;;;;;;;;5058312;28;20048;-65
2023/01/15 02:33:41;;;;;;;17.83;4.20;;;;;;;;;;5058405;28;20044;-64
2023/01/15 02:36:08;;;;;;;15.03;3.70;;;;;;;;;;5059379;28;20041;-65
2023/01/15 02:38:40;;;;;;;22.40;3.13;;;;;;;;;;5057478;28;20483;-65
2023/01/15 02:41:15;;;;;;;13.53;3.03;;;;;;;;;;5062645;28;20047;-65
2023/01/15 02:43:42;;;;;;;19.33;3.17;;;;;;;;;;5061522;28;20422;-65
2023/01/15 02:46:08;;;;;;;22.40;4.73;;;;;;;;;;5059971;28;20040;-64
2023/01/15 02:48:36;;;;;;;22.50;3.17;;;;;;;;;;5054886;28;20064;-65
2023/01/15 02:51:18;;;;;;;21.97;2.70;;;;;;;;;;5062150;28;20044;-65
2023/01/15 02:53:47;;;;;;;22.33;2.90;;;;;;;;;;5055710;28;20045;-65
2023/01/15 02:56:15;;;;;;;18.83;3.43;;;;;;;;;;5059697;28;20055;-65
2023/01/15 02:58:42;;;;;;;23.60;2.80;;;;;;;;;;5058073;28;20045;-64
2023/01/15 03:01:13;;;;;;;19.80;3.37;;;;;;;;;;5059841;28;20552;-65
2023/01/15 03:03:42;;;;;;;18.37;3.00;;;;;;;;;;5056363;28;20045;-65
2023/01/15 03:06:31;;;;;;;23.63;3.70;;;;;;;;;;5057280;28;20068;-64
2023/01/15 03:08:58;;;;;;;14.97;2.80;;;;;;;;;;5043610;28;20045;-65
2023/01/15 03:11:24;;;;;;;22.57;3.30;;;;;;;;;;5056994;28;20040;-64
2023/01/15 03:13:51;;;;;;;10.97;3.00;;;;;;;;;;5053950;28;20041;-64
2023/01/15 03:19:31;;;;;;;26.63;4.23;;;;;;;;;;5058126;28;20040;-64
2023/01/15 03:22:16;;;;;;;18.57;3.37;;;;;;;;;;5049463;28;20080;-65
2023/01/15 03:24:54;;;;;;;19.87;3.03;;;;;;;;;;5060810;28;20128;-64
2023/01/15 03:27:20;;;;;;;22.67;4.63;;;;;;;;;;5053312;28;20037;-65
2023/01/15 03:29:48;;;;;;;20.87;3.67;;;;;;;;;;5060691;28;20044;-65
2023/01/15 03:32:15;;;;;;;18.40;3.13;;;;;;;;;;5056918;28;20052;-65
2023/01/15 03:34:46;;;;;;;20.10;4.27;;;;;;;;;;5057228;28;20446;-65
2023/01/15 03:37:12;;;;;;;20.10;3.47;;;;;;;;;;5057087;28;20041;-65
2023/01/15 03:39:39;;;;;;;15.77;2.83;;;;;;;;;;5055151;28;20048;-64
2023/01/15 03:42:15;;;;;;;22.37;3.77;;;;;;;;;;5054667;28;20048;-65
2023/01/15 03:44:41;;;;;;;15.90;3.23;;;;;;;;;;5058150;28;20605;-65
2023/01/15 03:47:25;;;;;;;14.53;2.40;;;;;;;;;;5058727;28;20091;-64
2023/01/15 03:50:03;;;;;;;19.43;3.23;;;;;;;;;;5058604;28;20056;-64
2023/01/15 03:52:31;;;;;;;18.33;2.90;;;;;;;;;;5053939;28;20045;-65
2023/01/15 03:55:04;;;;;;;18.73;3.20;;;;;;;;;;5052106;28;20041;-64
2023/01/15 03:57:43;;;;;;;15.10;2.00;;;;;;;;;;5049695;28;20048;-64
2023/01/15 04:00:20;;;;;;;19.33;3.13;;;;;;;;;;5049066;28;20283;-64
2023/01/15 04:02:47;;;;;;;24.43;5.13;;;;;;;;;;5049552;28;20140;-65
2023/01/15 04:05:14;;;;;;;18.23;2.90;;;;;;;;;;5049340;28;20047;-65
2023/01/15 04:07:40;;;;;;;13.33;2.57;;;;;;;;;;5048189;28;20163;-64
2023/01/15 04:10:08;;;;;;;20.00;4.57;;;;;;;;;;5048923;28;20041;-64
2023/01/15 04:12:34;;;;;;;22.20;4.33;;;;;;;;;;5063890;28;20521;-65
2023/01/15 04:15:00;;;;;;;23.90;2.90;;;;;;;;;;5067940;28;20144;-65
2023/01/15 04:17:26;;;;;;;18.23;3.00;;;;;;;;;;5067726;28;20055;-65
2023/01/15 04:19:52;;;;;;;27.13;4.10;;;;;;;;;;5067869;28;20049;-64
2023/01/15 04:22:18;;;;;;;18.70;2.83;;;;;;;;;;5067356;28;20044;-65
2023/01/15 04:24:44;;;;;;;13.93;2.63;;;;;;;;;;5069068;28;20048;-65
2023/01/15 04:27:10;;;;;;;18.07;3.47;;;;;;;;;;5068638;28;20055;-64
2023/01/15 04:29:36;;;;;;;19.13;2.97;;;;;;;;;;5060812;28;20076;-64
2023/01/15 04:32:02;;;;;;;19.90;2.83;;;;;;;;;;5069255;28;20049;-64
2023/01/15 04:34:28;;;;;;;16.03;3.37;;;;;;;;;;5068499;28;20044;-64
2023/01/15 04:36:55;;;;;;;22.93;3.90;;;;;;;;;;5067979;28;20040;-64
2023/01/15 04:39:21;;;;;;;24.30;4.00;;;;;;;;;;5067813;28;20044;-64
2023/01/15 04:44:35;;;;;;;18.30;2.47;;;;;;;;;;5069019;28;20589;-64
2023/01/15 04:47:01;;;;;;;22.17;3.33;;;;;;;;;;5066398;28;20101;-64
2023/01/15 04:49:28;;;;;;;15.47;4.23;;;;;;;;;;5046578;28;20098;-65
2023/01/15 04:51:54;;;;;;;16.33;2.43;;;;;;;;;;5048818;28;20051;-64
2023/01/15 04:54:21;;;;;;;17.77;2.73;;;;;;;;;;5048869;28;20083;-64
2023/01/15 04:56:49;;;;;;;20.03;2.80;;;;;;;;;;5048253;28;20041;-64
2023/01/15 04:59:15;;;;;;;16.80;3.03;;;;;;;;;;5048535;28;20388;-64
2023/01/15 05:01:41;;;;;;;15.73;2.93;;;;;;;;;;5048695;28;20040;-64
2023/01/15 05:04:08;;;;;;;19.63;2.83;;;;;;;;;;5059059;28;20044;-64
2023/01/15 05:06:34;;;;;;;22.33;3.43;;;;;;;;;;5048615;28;20052;-64
2023/01/15 05:09:00;;;;;;;28.03;4.77;;;;;;;;;;5046979;28;20045;-64
2023/01/15 05:11:27;;;;;;;22.17;3.33;;;;;;;;;;5048921;28;20051;-64
2023/01/15 05:13:53;;;;;;;13.93;2.93;;;;;;;;;;5048450;28;20037;-65
2023/01/15 05:16:23;;;;;;;22.67;3.27;;;;;;;;;;5048801;28;20518;-64
2023/01/15 05:18:49;;;;;;;20.70;4.47;;;;;;;;;;5048290;28;20146;-64
2023/01/15 05:21:17;;;;;;;16.90;2.67;;;;;;;;;;5046150;28;20041;-64
2023/01/15 05:23:43;;;;;;;25.10;4.13;;;;;;;;;;5047138;28;20049;-64
2023/01/15 05:26:09;;;;;;;22.27;3.07;;;;;;;;;;5048374;28;20052;-64
2023/01/15 05:28:35;;;;;;;16.17;2.77;;;;;;;;;;5047879;28;20049;-65
2023/01/15 05:31:06;;;;;;;26.07;4.10;;;;;;;;;;5048027;28;20049;-64
2023/01/15 05:33:32;;;;;;;19.10;4.17;;;;;;;;;;5068046;28;20048;-64
2023/01/15 05:36:02;;;;;;;20.67;4.90;;;;;;;;;;5066857;28;20048;-64
2023/01/15 05:38:28;;;;;;;12.30;2.63;;;;;;;;;;5058878;28;20110;-64
2023/01/15 05:40:54;;;;;;;8.90;2.30;;;;;;;;;;5047996;28;20110;-64
2023/01/15 05:43:21;;;;;;;10.63;1.90;;;;;;;;;;5048080;28;20053;-64
2023/01/15 05:45:47;;;;;;;11.87;2.60;;;;;;;;;;5048060;28;20510;-63
2023/01/15 05:48:13;;;;;;;10.47;2.13;;;;;;;;;;5048124;28;20057;-64
2023/01/15 05:50:39;;;;;;;12.50;2.70;;;;;;;;;;5069645;28;20668;-64
2023/01/15 05:53:06;;;;;;;12.03;2.10;;;;;;;;;;5069135;28;20860;-64
2023/01/15 05:55:32;;;;;;;17.00;2.90;;;;;;;;;;5052031;28;20140;-64
2023/01/15 05:57:58;;;;;;;8.93;1.90;;;;;;;;;;5050344;28;20033;-64
2023/01/15 06:00:24;;;;;;;9.43;3.07;;;;;;;;;;5051583;28;20120;-64
2023/01/15 06:02:51;;;;;;;12.90;2.77;;;;;;;;;;5050465;28;20045;-64
2023/01/15 06:05:19;;;;;;;8.03;2.00;;;;;;;;;;5050595;28;20063;-64
2023/01/15 06:07:48;;;;;;;17.43;2.93;;;;;;;;;;5051006;28;20076;-64
2023/01/15 06:10:18;;;;;;;11.50;2.27;;;;;;;;;;5051964;28;20487;-64
2023/01/15 06:12:44;;;;;;;13.17;2.43;;;;;;;;;;5051636;28;20040;-64
2023/01/15 06:15:11;;;;;;;20.67;3.50;;;;;;;;;;5050561;28;20040;-64
2023/01/15 06:17:37;;;;;;;10.47;2.20;;;;;;;;;;5051918;28;20052;-64
2023/01/15 06:20:04;;;;;;;21.70;3.20;;;;;;;;;;5050683;28;20088;-64
2023/01/15 06:22:30;;;;;;;26.27;3.60;;;;;;;;;;5051365;28;20511;-64
2023/01/15 06:24:56;;;;;;;14.73;2.50;;;;;;;;;;5050625;28;20048;-64
2023/01/15 06:27:22;;;;;;;19.23;3.50;;;;;;;;;;5064973;28;20040;-65
2023/01/15 06:29:48;;;;;;;13.90;2.53;;;;;;;;;;5055662;28;20116;-64
2023/01/15 06:32:14;;;;;;;14.93;3.50;;;;;;;;;;5071385;28;20043;-64
2023/01/15 06:34:42;;;;;;;12.20;2.37;;;;;;;;;;5062657;28;20041;-64
2023/01/15 06:37:08;;;;;;;15.33;3.40;;;;;;;;;;5049743;28;20053;-64
2023/01/15 06:39:34;;;;;;;14.60;2.43;;;;;;;;;;5050812;28;20613;-64
2023/01/15 06:47:30;;;;;;;17.27;3.10;;;;;;;;;;5050253;28;20172;-64
2023/01/15 06:49:56;;;;;;;15.47;2.97;;;;;;;;;;5050456;28;20057;-64
2023/01/15 06:52:27;;;;;;;14.57;2.67;;;;;;;;;;5049486;28;20449;-64
2023/01/15 06:54:53;;;;;;;13.53;3.00;;;;;;;;;;5060991;28;20041;-63
2023/01/15 06:57:19;;;;;;;14.90;3.03;;;;;;;;;;5062403;28;20076;-64
2023/01/15 06:59:45;;;;;;;7.87;2.00;;;;;;;;;;5059773;28;20119;-64
2023/01/15 07:02:11;;;;;;;16.90;2.30;;;;;;;;;;5059171;28;20053;-64
2023/01/15 07:04:37;;;;;;;14.83;2.23;;;;;;;;;;5058506;28;20438;-64
2023/01/15 07:07:03;;;;;;;20.07;2.13;;;;;;;;;;5057337;28;20116;-63
2023/01/15 07:09:29;;;;;;;12.80;2.57;;;;;;;;;;5059721;28;20049;-64
2023/01/15 07:11:56;;;;;;;22.53;2.63;;;;;;;;;;5058157;28;20048;-64
2023/01/15 07:14:23;;;;;;;13.43;2.60;;;;;;;;;;5060913;28;20116;-64
2023/01/15 07:16:49;;;;;;;10.20;2.03;;;;;;;;;;5063126;28;20431;-64
2023/01/15 07:19:15;;;;;;;15.93;2.43;;;;;;;;;;5050861;28;20051;-64
2023/01/15 07:21:42;;;;;;;12.17;2.70;;;;;;;;;;5050247;28;20499;-64
2023/01/15 07:24:09;;;;;;;15.80;2.40;;;;;;;;;;5052274;28;20406;-64
2023/01/15 07:26:35;;;;;;;21.37;2.63;;;;;;;;;;5054764;28;20055;-64
2023/01/15 07:29:01;;;;;;;15.23;2.50;;;;;;;;;;5057654;28;20048;-64
2023/01/15 07:31:27;;;;;;;12.73;2.47;;;;;;;;;;5062899;28;20048;-64
2023/01/15 07:33:55;;;;;;;14.00;2.73;;;;;;;;;;5057078;28;20126;-64
2023/01/15 07:36:21;;;;;;;9.23;2.13;;;;;;;;;;5058610;28;20486;-64
2023/01/15 07:38:47;;;;;;;14.37;2.70;;;;;;;;;;5058889;28;20045;-64
2023/01/15 07:52:13;;;;;;;12.27;2.47;;;;;;;;;;5056659;28;20052;-65
2023/01/15 07:54:39;;;;;;;9.13;1.90;;;;;;;;;;5056516;28;20056;-65
2023/01/15 07:57:06;;;;;;;14.33;2.60;;;;;;;;;;5060359;28;20143;-65
2023/01/15 07:59:32;;;;;;;11.60;2.13;;;;;;;;;;5059677;28;20051;-64
2023/01/15 08:01:58;;;;;;;10.60;2.47;;;;;;;;;;5056410;28;20120;-64
2023/01/15 08:04:24;;;;;;;11.03;1.93;;;;;;;;;;5059800;28;20059;-64
2023/01/15 08:06:50;;;;;;;14.33;2.30;;;;;;;;;;5058731;28;20099;-64
2023/01/15 08:09:16;;;;;;;9.33;1.87;;;;;;;;;;5057132;28;20041;-65
2023/01/15 08:17:11;;;;;;;14.70;2.97;;;;;;;;;;5058532;28;20056;-65
2023/01/15 08:19:38;;;;;;;11.40;2.77;;;;;;;;;;5056705;28;20087;-64
2023/01/15 08:22:04;;;;;;;18.83;3.13;;;;;;;;;;5055738;28;20045;-63
2023/01/15 08:24:30;;;;;;;11.37;2.80;;;;;;;;;;5058102;28;20045;-64
2023/01/15 08:26:56;;;;;;;11.27;1.67;;;;;;;;;;5057857;28;20052;-64
2023/01/15 08:29:25;;;;;;;18.10;2.00;;;;;;;;;;5057116;28;20337;-64
2023/01/15 08:31:51;;;;;;;10.87;2.20;;;;;;;;;;5055638;28;20094;-65
2023/01/15 08:34:18;;;;;;;9.37;1.37;;;;;;;;;;5055121;28;20511;-64
2023/01/15 08:36:44;;;;;;;8.97;3.07;;;;;;;;;;5047799;28;20507;-64
2023/01/15 08:39:10;;;;;;;18.03;2.87;;;;;;;;;;5048047;28;20052;-64
2023/01/15 08:41:36;;;;;;;11.87;2.67;;;;;;;;;;5047739;28;20807;-64
2023/01/15 08:44:02;;;;;;;15.83;1.90;;;;;;;;;;5051910;28;20086;-64
2023/01/15 08:46:28;;;;;;;14.37;2.20;;;;;;;;;;5047419;28;20068;-64
2023/01/15 08:48:54;;;;;;;16.27;2.73;;;;;;;;;;5047637;28;20211;-64
2023/01/15 08:51:20;;;;;;;10.80;3.20;;;;;;;;;;5046555;28;20045;-64
2023/01/15 08:53:46;;;;;;;10.77;2.23;;;;;;;;;;5048728;28;20383;-64
2023/01/15 08:56:14;;;;;;;13.20;2.47;;;;;;;;;;5048389;28;20430;-65
2023/01/15 08:58:40;;;;;;;21.27;3.00;;;;;;;;;;5049069;28;20045;-66
2023/01/15 09:01:07;;;;;;;10.27;2.00;;;;;;;;;;5056865;28;20052;-66
2023/01/15 09:03:33;;;;;;;12.23;2.43;;;;;;;;;;5050010;28;20130;-67
2023/01/15 09:06:00;;;;;;;13.13;2.30;;;;;;;;;;5067385;28;20071;-67
2023/01/15 09:08:26;;;;;;;15.70;2.53;;;;;;;;;;5050292;28;20427;-68
2023/01/15 09:10:57;;;;;;;12.53;1.83;;;;;;;;;;5047594;28;20064;-67
2023/01/15 09:13:23;;;;;;;17.83;2.53;;;;;;;;;;5031261;28;20045;-67
2023/01/15 09:15:49;;;;;;;15.80;2.73;;;;;;;;;;5048160;28;20041;-68
2023/01/15 09:18:18;;;;;;;16.17;3.30;;;;;;;;;;5057209;28;20060;-68
2023/01/15 09:20:44;;;;;;;28.40;4.67;;;;;;;;;;5067971;28;20383;-69
2023/01/15 09:23:10;;;;;;;16.03;2.30;;;;;;;;;;5067401;28;20041;-70
2023/01/15 09:25:36;;;;;;;13.93;2.43;;;;;;;;;;5068486;28;20050;-68
2023/01/15 09:28:03;;;;;;;22.60;2.87;;;;;;;;;;5050360;28;20506;-67
2023/01/15 09:30:29;;;;;;;16.97;2.57;;;;;;;;;;5070075;28;20049;-67
2023/01/15 09:32:55;;;;;;;24.80;3.07;;;;;;;;;;5071260;28;20052;-68
2023/01/15 09:35:21;;;;;;;13.67;2.87;;;;;;;;;;5056401;28;20359;-67
2023/01/15 09:37:52;;;;;;;19.27;3.30;;;;;;;;;;5059976;28;20556;-67
2023/01/15 09:40:28;;;;;;;23.47;3.03;;;;;;;;;;5043759;28;20049;-66
2023/01/15 09:43:00;;;;;;;18.37;3.40;;;;;;;;;;5065667;28;20048;-66
2023/01/15 09:45:30;;;;;;;17.47;3.20;;;;;;;;;;5069126;28;20044;-66
2023/01/15 09:47:59;;;;;;;12.60;3.17;;;;;;;;;;5051723;28;20057;-67
2023/01/15 09:50:41;;;;;;;20.23;3.30;;;;;;;;;;5050396;28;20052;-67
2023/01/15 09:53:07;;;;;;;19.70;1.97;;;;;;;;;;5050076;28;20582;-67
2023/01/15 09:55:35;;;;;;;25.17;4.43;;;;;;;;;;5060668;28;20120;-68
2023/01/15 09:58:05;;;;;;;10.67;2.10;;;;;;;;;;5060444;28;20044;-67
2023/01/15 10:00:37;;;;;;;16.40;3.00;;;;;;;;;;5060914;28;20041;-67
2023/01/15 10:03:09;;;;;;;15.47;2.57;;;;;;;;;;5057160;28;20041;-68
2023/01/15 10:05:44;;;;;;;18.10;2.80;;;;;;;;;;5059125;28;20041;-66
2023/01/15 10:08:20;;;;;;;18.67;2.67;;;;;;;;;;5059309;28;20521;-67
2023/01/15 10:10:48;;;;;;;11.83;2.10;;;;;;;;;;5067747;28;20098;-67
2023/01/15 10:13:32;;;;;;;16.83;2.47;;;;;;;;;;5070448;28;20052;-66
2023/01/15 10:15:58;;;;;;;13.13;3.10;;;;;;;;;;5056188;28;20052;-66
2023/01/15 10:18:26;;;;;;;17.63;2.47;;;;;;;;;;5050613;28;20175;-67
2023/01/15 10:21:17;;;;;;;22.60;2.67;;;;;;;;;;5049401;28;20055;-67
2023/01/15 10:24:01;;;;;;;20.03;2.67;;;;;;;;;;5050581;28;20499;-66
2023/01/15 10:26:27;;;;;;;15.77;3.07;;;;;;;;;;5051149;28;20119;-66
2023/01/15 10:28:53;;;;;;;14.40;3.37;;;;;;;;;;5050837;28;20419;-67
2023/01/15 10:31:21;;;;;;;21.93;3.67;;;;;;;;;;5033088;28;20709;-66
2023/01/15 10:34:05;;;;;;;17.23;3.07;;;;;;;;;;5053199;28;20041;-66
2023/01/15 10:36:39;;;;;;;20.23;3.07;;;;;;;;;;5067409;28;20140;-66
2023/01/15 10:39:20;;;;;;;15.43;2.80;;;;;;;;;;5063242;28;20759;-66
2023/01/15 10:42:05;;;;;;;20.73;3.03;;;;;;;;;;5059328;28;20654;-66
2023/01/15 10:44:40;;;;;;;24.37;3.33;;;;;;;;;;5056887;28;20064;-66
2023/01/15 10:47:10;;;;;;;14.63;3.27;;;;;;;;;;5069257;28;20049;-66
2023/01/15 10:49:37;;;;;;;22.23;2.70;;;;;;;;;;5054214;28;20056;-67
2023/01/15 10:52:23;;;;;;;24.97;2.73;;;;;;;;;;5054777;28;20438;-67
2023/01/15 10:54:54;;;;;;;18.07;4.13;;;;;;;;;;5065759;28;20058;-67
2023/01/15 10:57:26;;;;;;;18.53;3.00;;;;;;;;;;5070493;28;20052;-66
2023/01/15 10:59:56;;;;;;;22.17;3.33;;;;;;;;;;5057823;28;20064;-67
2023/01/15 11:02:25;;;;;;;20.93;3.00;;;;;;;;;;5054033;28;20044;-66
2023/01/15 11:04:52;;;;;;;15.20;2.80;;;;;;;;;;5064164;28;20037;-66
2023/01/15 11:07:18;;;;;;;21.57;3.53;;;;;;;;;;5069640;28;20052;-66
2023/01/15 11:09:45;;;;;;;13.87;3.03;;;;;;;;;;5069352;28;20048;-66
2023/01/15 11:20:23;;;;;;;24.53;3.90;;;;;;;;;;5059467;28;20087;-66
2023/01/15 11:22:49;;;;;;;26.47;5.33;;;;;;;;;;5057241;28;20044;-65
2023/01/15 11:25:24;;;;;;;18.47;4.67;;;;;;;;;;5059312;28;20515;-66
2023/01/15 11:27:50;;;;;;;24.00;3.30;;;;;;;;;;5057511;28;20138;-66
2023/01/15 11:30:33;;;;;;;17.37;2.73;;;;;;;;;;5056179;28;20051;-66
2023/01/15 11:33:02;;;;;;;16.57;3.57;;;;;;;;;;5058276;28;20543;-67
2023/01/15 11:35:29;;;;;;;16.60;2.43;;;;;;;;;;5052818;28;20124;-67
2023/01/15 11:38:06;;;;;;;13.27;2.80;;;;;;;;;;5057209;28;20059;-67
2023/01/15 11:40:32;;;;;;;15.90;2.57;;;;;;;;;;5057888;28;20048;-65
2023/01/15 11:51:27;;;;;;;16.27;3.90;;;;;;;;;;5062201;28;20040;-67
2023/01/15 11:53:55;;;;;;;17.67;3.37;;;;;;;;;;5057054;28;20049;-66
2023/01/15 11:56:23;;;;;;;16.30;3.50;;;;;;;;;;5054478;28;20048;-66
2023/01/15 11:58:56;;;;;;;17.07;3.30;;;;;;;;;;5058112;28;20047;-67
2023/01/15 12:01:29;;;;;;;13.80;3.13;;;;;;;;;;5051682;28;20411;-66
2023/01/15 12:03:57;;;;;;;25.67;3.72;;;;;;;;;;5049611;28;20048;-66
2023/01/15 12:06:24;;;;;;;13.23;3.53;;;;;;;;;;5031364;28;20075;-66
2023/01/15 12:08:51;;;;;;;16.37;2.47;;;;;;;;;;5047714;28;20063;-66
2023/01/15 12:11:18;;;;;;;14.23;3.17;;;;;;;;;;5067438;28;20136;-64
2023/01/15 12:13:52;;;;;;;13.57;2.93;;;;;;;;;;5051168;28;20602;-65
2023/01/15 12:16:24;;;;;;;16.70;2.83;;;;;;;;;;5067974;28;20048;-65
2023/01/15 12:18:53;;;;;;;12.67;2.60;;;;;;;;;;5068984;28;20044;-65
2023/01/15 12:21:22;;;;;;;12.70;2.40;;;;;;;;;;5048623;28;20053;-64
2023/01/15 12:23:57;;;;;;;17.23;3.37;;;;;;;;;;5048251;28;20036;-64
2023/01/15 12:26:26;;;;;;;15.50;2.23;;;;;;;;;;5056932;28;20081;-66
2023/01/15 12:28:54;;;;;;;16.60;3.23;;;;;;;;;;5055949;28;20052;-66
2023/01/15 12:31:25;;;;;;;21.53;3.47;;;;;;;;;;5054340;28;20545;-67
2023/01/15 12:33:53;;;;;;;14.53;2.13;;;;;;;;;;5055984;28;20499;-67
2023/01/15 12:36:21;;;;;;;16.23;3.47;;;;;;;;;;5055044;28;20439;-65
2023/01/15 12:38:54;;;;;;;13.10;2.77;;;;;;;;;;5057114;28;20056;-66
2023/01/15 12:41:23;;;;;;;18.03;3.00;;;;;;;;;;5053869;28;21079;-66
2023/01/15 12:46:43;;;;;;;17.33;3.63;;;;;;;;;;5063167;28;20388;-66
2023/01/15 12:49:17;;;;;;;21.53;3.70;;;;;;;;;;5048559;28;20052;-66
2023/01/15 12:52:02;;;;;;;16.83;3.00;;;;;;;;;;5049602;28;20128;-66
2023/01/15 12:54:30;;;;;;;22.13;3.67;;;;;;;;;;5047091;28;20637;-66
2023/01/15 12:57:17;;;;;;;13.23;2.43;;;;;;;;;;5048738;28;20049;-67
2023/01/15 12:59:43;;;;;;;12.97;2.37;;;;;;;;;;5062870;28;20487;-66
2023/01/15 13:02:13;;;;;;;19.63;2.90;;;;;;;;;;5050228;28;20396;-66
2023/01/15 13:04:50;;;;;;;14.40;2.73;;;;;;;;;;5048307;28;20103;-66
2023/01/15 13:07:16;;;;;;;23.80;3.63;;;;;;;;;;5030877;28;20049;-67
2023/01/15 13:09:42;;;;;;;9.73;2.40;;;;;;;;;;5030143;28;20064;-66
2023/01/15 13:12:11;;;;;;;15.27;3.13;;;;;;;;;;5051139;28;20041;-66
2023/01/15 13:14:38;;;;;;;19.63;3.27;;;;;;;;;;5048535;28;20643;-67
2023/01/15 13:17:08;;;;;;;23.00;5.10;;;;;;;;;;5067358;28;20044;-68
2023/01/15 13:19:43;;;;;;;19.57;2.77;;;;;;;;;;5050796;28;20045;-68
2023/01/15 13:22:22;;;;;;;17.20;5.17;;;;;;;;;;5049718;28;20052;-67
2023/01/15 13:24:53;;;;;;;31.60;4.87;;;;;;;;;;5050236;28;20045;-67
2023/01/15 13:27:38;;;;;;;19.33;3.00;;;;;;;;;;5030324;28;21000;-65
2023/01/15 13:30:23;;;;;;;20.03;3.10;;;;;;;;;;5047773;28;20110;-65
2023/01/15 13:32:51;;;;;;;15.73;3.50;;;;;;;;;;5057779;28;20055;-65
2023/01/15 13:35:41;;;;;;;15.63;3.63;;;;;;;;;;5060026;28;20060;-65
2023/01/15 13:38:15;;;;;;;20.27;2.87;;;;;;;;;;5061167;28;20052;-65
2023/01/15 13:40:49;;;;;;;18.40;3.83;;;;;;;;;;5067179;28;20163;-65
2023/01/15 13:43:37;;;;;;;17.87;3.53;;;;;;;;;;5048504;28;20048;-65
2023/01/15 13:46:05;;;;;;;15.10;3.50;;;;;;;;;;5047968;28;20092;-65
2023/01/15 13:48:33;;;;;;;17.03;3.10;;;;;;;;;;5044996;28;20435;-65
2023/01/15 13:51:01;;;;;;;19.00;2.93;;;;;;;;;;5062336;28;20117;-65
2023/01/15 13:53:29;;;;;;;24.73;4.00;;;;;;;;;;5061707;28;20052;-64
2023/01/15 13:56:21;;;;;;;12.97;2.80;;;;;;;;;;5062322;28;20045;-65
2023/01/15 13:58:55;;;;;;;20.80;2.33;;;;;;;;;;5045821;28;20515;-64
2023/01/15 14:01:25;;;;;;;16.67;3.80;;;;;;;;;;5028195;28;20132;-65
2023/01/15 14:04:00;;;;;;;14.33;2.43;;;;;;;;;;5045444;28;20120;-64
2023/01/15 14:06:43;;;;;;;17.43;4.17;;;;;;;;;;5049836;28;20044;-65
2023/01/15 14:09:11;;;;;;;14.27;2.87;;;;;;;;;;5046597;28;20114;-65
2023/01/15 14:11:47;;;;;;;17.70;3.47;;;;;;;;;;5047239;28;20378;-67
2023/01/15 14:14:28;;;;;;;38.23;4.97;;;;;;;;;;5050215;28;20066;-66
2023/01/15 14:17:00;;;;;;;12.63;2.90;;;;;;;;;;5051037;28;20592;-67
2023/01/15 14:19:57;;;;;;;13.70;1.70;;;;;;;;;;5033313;28;20139;-67
2023/01/15 14:22:33;;;;;;;15.37;1.50;;;;;;;;;;5051326;28;20507;-66
2023/01/15 14:25:07;;;;;;;5.40;1.03;;;;;;;;;;5054797;28;20049;-66
2023/01/15 14:27:44;;;;;;;2.70;1.00;;;;;;;;;;5049655;28;20051;-66
2023/01/15 14:30:31;;;;;;;6.63;1.30;;;;;;;;;;5049792;28;20106;-65
2023/01/15 14:33:00;;;;;;;2.67;0.73;;;;;;;;;;5049608;28;20049;-65
2023/01/15 14:35:27;;;;;;;4.93;1.00;;;;;;;;;;5052050;28;20079;-65
2023/01/15 14:37:58;;;;;;;3.83;0.80;;;;;;;;;;5049206;28;20041;-65
2023/01/15 14:40:27;;;;;;;4.17;1.00;;;;;;;;;;5055999;28;20052;-66
2023/01/15 14:43:01;;;;;;;2.93;0.70;;;;;;;;;;5070997;28;20048;-65
2023/01/15 14:45:27;;;;;;;6.50;0.93;;;;;;;;;;5069604;28;20166;-65
2023/01/15 14:47:54;;;;;;;4.20;1.00;;;;;;;;;;5058563;28;20152;-65
2023/01/15 14:50:37;;;;;;;8.63;0.90;;;;;;;;;;5050577;28;20055;-66
2023/01/15 14:53:03;;;;;;;7.40;1.03;;;;;;;;;;5050826;28;20076;-65
2023/01/15 14:55:29;;;;;;;15.07;5.47;;;;;;;;;;5050760;28;20475;-65
2023/01/15 14:58:00;;;;;;;3.90;0.73;;;;;;;;;;5050963;28;20052;-65
2023/01/15 15:00:30;;;;;;;8.43;2.80;;;;;;;;;;5032733;28;20060;-65
2023/01/15 15:02:57;;;;;;;4.93;1.60;;;;;;;;;;5049594;28;20041;-65
2023/01/15 15:05:24;;;;;;;8.87;1.40;;;;;;;;;;5048352;28;20487;-65
2023/01/15 15:07:54;;;;;;;6.33;1.43;;;;;;;;;;5052309;28;20059;-65
2023/01/15 15:10:31;;;;;;;7.60;1.20;;;;;;;;;;5050492;28;20041;-65
2023/01/15 15:13:14;;;;;;;8.63;1.23;;;;;;;;;;5049447;28;20056;-65
2023/01/15 15:16:00;;;;;;;8.20;1.50;;;;;;;;;;5050720;28;20099;-65
2023/01/15 15:18:31;;;;;;;30.13;4.20;;;;;;;;;;5050602;28;20048;-65
2023/01/15 15:21:20;;;;;;;9.40;1.40;;;;;;;;;;5049073;28;20049;-65
2023/01/15 15:23:50;;;;;;;11.40;1.47;;;;;;;;;;5053257;28;20094;-65
2023/01/15 15:26:21;;;;;;;7.60;2.03;;;;;;;;;;5068974;28;20060;-65
2023/01/15 15:29:07;;;;;;;7.13;1.80;;;;;;;;;;5062195;28;20055;-65
2023/01/15 15:31:35;;;;;;;15.03;4.47;;;;;;;;;;5048309;28;20064;-65
2023/01/15 15:34:01;;;;;;;15.03;2.53;;;;;;;;;;5068234;28;20048;-65